sensor_id;sensor_type;location;lat;lon;timestamp;P1;durP1;ratioP1;P2;durP2;ratioP2
67776;SDS011;54576;52.020;5.536;2023-07-28T00:01:51;17.40;;;8.02;;
67776;SDS011;54576;52.020;5.536;2023-07-28T00:04:16;12.90;;;8.00;;
67776;SDS011;54576;52.020;5.536;2023-07-28T00:06:42;11.82;;;8.25;;
67776;SDS011;54576;52.020;5.536;2023-07-28T00:09:07;11.20;;;7.20;;
67776;SDS011;54576;52.020;5.536;2023-07-28T00:11:33;14.18;;;7.70;;
67776;SDS011;54576;52.020;5.536;2023-07-28T00:13:58;12.00;;;8.15;;
67776;SDS011;54576;52.020;5.536;2023-07-28T00:16:24;10.90;;;7.68;;
67776;SDS011;54576;52.020;5.536;2023-07-28T00:18:50;11.18;;;7.38;;
67776;SDS011;54576;52.020;5.536;2023-07-28T00:21:16;10.77;;;7.65;;
67776;SDS011;54576;52.020;5.536;2023-07-28T00:23:41;11.85;;;8.05;;
67776;SDS011;54576;52.020;5.536;2023-07-28T00:26:07;14.45;;;7.32;;
67776;SDS011;54576;52.020;5.536;2023-07-28T00:28:33;11.32;;;7.72;;
67776;SDS011;54576;52.020;5.536;2023-07-28T00:30:58;11.43;;;6.50;;
67776;SDS011;54576;52.020;5.536;2023-07-28T00:33:24;12.68;;;7.25;;
67776;SDS011;54576;52.020;5.536;2023-07-28T00:35:50;9.88;;;6.57;;
67776;SDS011;54576;52.020;5.536;2023-07-28T00:38:16;11.88;;;7.47;;
67776;SDS011;54576;52.020;5.536;2023-07-28T00:40:42;10.63;;;6.97;;
67776;SDS011;54576;52.020;5.536;2023-07-28T00:43:08;10.50;;;7.10;;
67776;SDS011;54576;52.020;5.536;2023-07-28T00:45:34;14.98;;;6.90;;
67776;SDS011;54576;52.020;5.536;2023-07-28T00:48:00;11.50;;;6.93;;
67776;SDS011;54576;52.020;5.536;2023-07-28T00:50:26;13.13;;;6.88;;
67776;SDS011;54576;52.020;5.536;2023-07-28T00:52:53;14.20;;;7.28;;
67776;SDS011;54576;52.020;5.536;2023-07-28T00:55:20;12.10;;;6.97;;
67776;SDS011;54576;52.020;5.536;2023-07-28T00:57:46;14.73;;;7.05;;
67776;SDS011;54576;52.020;5.536;2023-07-28T01:00:12;15.40;;;7.38;;
67776;SDS011;54576;52.020;5.536;2023-07-28T01:02:38;12.52;;;7.50;;
67776;SDS011;54576;52.020;5.536;2023-07-28T01:05:05;15.50;;;6.72;;
67776;SDS011;54576;52.020;5.536;2023-07-28T01:07:44;8.77;;;6.55;;
67776;SDS011;54576;52.020;5.536;2023-07-28T01:10:26;15.15;;;7.47;;
67776;SDS011;54576;52.020;5.536;2023-07-28T01:12:54;15.85;;;7.03;;
67776;SDS011;54576;52.020;5.536;2023-07-28T01:15:20;15.45;;;7.35;;
67776;SDS011;54576;52.020;5.536;2023-07-28T01:17:46;17.55;;;8.77;;
67776;SDS011;54576;52.020;5.536;2023-07-28T01:20:12;21.23;;;8.23;;
67776;SDS011;54576;52.020;5.536;2023-07-28T01:28:26;13.43;;;7.65;;
67776;SDS011;54576;52.020;5.536;2023-07-28T01:30:52;13.18;;;7.57;;
67776;SDS011;54576;52.020;5.536;2023-07-28T01:33:18;14.38;;;7.45;;
67776;SDS011;54576;52.020;5.536;2023-07-28T01:35:44;12.65;;;7.43;;
67776;SDS011;54576;52.020;5.536;2023-07-28T01:38:10;20.80;;;7.70;;
67776;SDS011;54576;52.020;5.536;2023-07-28T01:40:37;13.38;;;7.43;;
67776;SDS011;54576;52.020;5.536;2023-07-28T01:43:03;17.55;;;7.20;;
67776;SDS011;54576;52.020;5.536;2023-07-28T01:45:29;14.90;;;7.70;;
67776;SDS011;54576;52.020;5.536;2023-07-28T01:47:55;16.17;;;7.53;;
67776;SDS011;54576;52.020;5.536;2023-07-28T01:50:21;12.57;;;7.55;;
67776;SDS011;54576;52.020;5.536;2023-07-28T01:52:47;16.98;;;7.65;;
67776;SDS011;54576;52.020;5.536;2023-07-28T01:55:13;16.75;;;7.82;;
67776;SDS011;54576;52.020;5.536;2023-07-28T01:57:39;15.77;;;7.38;;
67776;SDS011;54576;52.020;5.536;2023-07-28T02:00:06;19.67;;;8.45;;
67776;SDS011;54576;52.020;5.536;2023-07-28T02:02:32;16.17;;;8.68;;
67776;SDS011;54576;52.020;5.536;2023-07-28T02:04:58;19.02;;;8.73;;
67776;SDS011;54576;52.020;5.536;2023-07-28T02:07:23;19.05;;;8.57;;
67776;SDS011;54576;52.020;5.536;2023-07-28T02:09:49;23.55;;;8.80;;
67776;SDS011;54576;52.020;5.536;2023-07-28T02:12:15;21.60;;;8.55;;
67776;SDS011;54576;52.020;5.536;2023-07-28T02:14:40;24.02;;;9.75;;
67776;SDS011;54576;52.020;5.536;2023-07-28T02:17:06;28.90;;;8.70;;
67776;SDS011;54576;52.020;5.536;2023-07-28T02:19:32;19.42;;;9.02;;
67776;SDS011;54576;52.020;5.536;2023-07-28T02:21:58;25.55;;;8.10;;
67776;SDS011;54576;52.020;5.536;2023-07-28T02:24:23;26.90;;;9.43;;
67776;SDS011;54576;52.020;5.536;2023-07-28T02:26:49;21.20;;;8.35;;
67776;SDS011;54576;52.020;5.536;2023-07-28T02:29:15;27.33;;;9.07;;
67776;SDS011;54576;52.020;5.536;2023-07-28T02:31:41;25.70;;;9.82;;
67776;SDS011;54576;52.020;5.536;2023-07-28T02:34:08;29.88;;;9.40;;
67776;SDS011;54576;52.020;5.536;2023-07-28T02:36:33;23.42;;;9.73;;
67776;SDS011;54576;52.020;5.536;2023-07-28T02:38:59;21.08;;;9.20;;
67776;SDS011;54576;52.020;5.536;2023-07-28T02:41:29;29.73;;;9.77;;
67776;SDS011;54576;52.020;5.536;2023-07-28T02:43:55;28.58;;;10.05;;
67776;SDS011;54576;52.020;5.536;2023-07-28T02:46:21;25.50;;;10.50;;
67776;SDS011;54576;52.020;5.536;2023-07-28T02:48:46;45.22;;;11.63;;
67776;SDS011;54576;52.020;5.536;2023-07-28T02:51:12;22.88;;;10.05;;
67776;SDS011;54576;52.020;5.536;2023-07-28T02:53:38;29.88;;;10.85;;
67776;SDS011;54576;52.020;5.536;2023-07-28T02:56:04;31.80;;;11.75;;
67776;SDS011;54576;52.020;5.536;2023-07-28T02:58:31;33.10;;;10.88;;
67776;SDS011;54576;52.020;5.536;2023-07-28T03:00:56;30.33;;;10.18;;
67776;SDS011;54576;52.020;5.536;2023-07-28T03:03:22;30.73;;;11.25;;
67776;SDS011;54576;52.020;5.536;2023-07-28T03:05:51;37.38;;;12.40;;
67776;SDS011;54576;52.020;5.536;2023-07-28T03:10:43;34.60;;;10.95;;
67776;SDS011;54576;52.020;5.536;2023-07-28T03:13:09;31.63;;;12.00;;
67776;SDS011;54576;52.020;5.536;2023-07-28T03:15:35;41.10;;;12.88;;
67776;SDS011;54576;52.020;5.536;2023-07-28T03:18:01;37.63;;;12.55;;
67776;SDS011;54576;52.020;5.536;2023-07-28T03:20:27;36.35;;;12.63;;
67776;SDS011;54576;52.020;5.536;2023-07-28T03:22:53;36.67;;;12.95;;
67776;SDS011;54576;52.020;5.536;2023-07-28T03:25:19;41.80;;;13.70;;
67776;SDS011;54576;52.020;5.536;2023-07-28T03:27:46;42.78;;;14.13;;
67776;SDS011;54576;52.020;5.536;2023-07-28T03:30:12;44.97;;;14.63;;
67776;SDS011;54576;52.020;5.536;2023-07-28T03:32:38;37.47;;;14.18;;
67776;SDS011;54576;52.020;5.536;2023-07-28T03:35:04;49.75;;;15.27;;
67776;SDS011;54576;52.020;5.536;2023-07-28T03:37:31;43.22;;;15.23;;
67776;SDS011;54576;52.020;5.536;2023-07-28T03:39:57;36.95;;;14.65;;
67776;SDS011;54576;52.020;5.536;2023-07-28T03:42:23;35.90;;;14.15;;
67776;SDS011;54576;52.020;5.536;2023-07-28T03:44:49;41.15;;;16.38;;
67776;SDS011;54576;52.020;5.536;2023-07-28T03:47:15;38.75;;;15.05;;
67776;SDS011;54576;52.020;5.536;2023-07-28T03:49:41;45.65;;;15.43;;
67776;SDS011;54576;52.020;5.536;2023-07-28T03:52:07;33.65;;;15.23;;
67776;SDS011;54576;52.020;5.536;2023-07-28T03:54:36;42.75;;;15.35;;
67776;SDS011;54576;52.020;5.536;2023-07-28T03:57:02;46.83;;;16.00;;
67776;SDS011;54576;52.020;5.536;2023-07-28T03:59:28;54.05;;;16.80;;
67776;SDS011;54576;52.020;5.536;2023-07-28T04:01:54;53.05;;;17.20;;
67776;SDS011;54576;52.020;5.536;2023-07-28T04:04:20;54.30;;;16.73;;
67776;SDS011;54576;52.020;5.536;2023-07-28T04:06:47;40.30;;;15.98;;
67776;SDS011;54576;52.020;5.536;2023-07-28T04:09:18;45.58;;;17.30;;
67776;SDS011;54576;52.020;5.536;2023-07-28T04:11:44;48.67;;;17.45;;
67776;SDS011;54576;52.020;5.536;2023-07-28T04:14:10;45.75;;;15.82;;
67776;SDS011;54576;52.020;5.536;2023-07-28T04:16:36;52.28;;;17.27;;
67776;SDS011;54576;52.020;5.536;2023-07-28T04:19:02;54.13;;;17.10;;
67776;SDS011;54576;52.020;5.536;2023-07-28T04:21:28;54.10;;;16.95;;
67776;SDS011;54576;52.020;5.536;2023-07-28T04:23:55;53.47;;;18.55;;
67776;SDS011;54576;52.020;5.536;2023-07-28T04:26:21;47.80;;;16.55;;
67776;SDS011;54576;52.020;5.536;2023-07-28T04:28:47;56.10;;;16.40;;
67776;SDS011;54576;52.020;5.536;2023-07-28T04:31:13;55.30;;;17.27;;
67776;SDS011;54576;52.020;5.536;2023-07-28T04:33:42;50.33;;;16.63;;
67776;SDS011;54576;52.020;5.536;2023-07-28T04:36:09;62.88;;;17.75;;
67776;SDS011;54576;52.020;5.536;2023-07-28T04:38:35;57.13;;;16.00;;
67776;SDS011;54576;52.020;5.536;2023-07-28T04:41:01;45.42;;;15.65;;
67776;SDS011;54576;52.020;5.536;2023-07-28T04:43:27;54.00;;;15.63;;
67776;SDS011;54576;52.020;5.536;2023-07-28T04:45:53;49.58;;;15.35;;
67776;SDS011;54576;52.020;5.536;2023-07-28T04:48:19;42.20;;;14.27;;
67776;SDS011;54576;52.020;5.536;2023-07-28T04:50:45;45.70;;;15.73;;
67776;SDS011;54576;52.020;5.536;2023-07-28T04:53:11;47.42;;;14.70;;
67776;SDS011;54576;52.020;5.536;2023-07-28T04:55:37;48.67;;;14.52;;
67776;SDS011;54576;52.020;5.536;2023-07-28T04:58:03;48.17;;;14.23;;
67776;SDS011;54576;52.020;5.536;2023-07-28T05:00:29;41.88;;;13.38;;
67776;SDS011;54576;52.020;5.536;2023-07-28T05:02:55;41.45;;;14.35;;
67776;SDS011;54576;52.020;5.536;2023-07-28T05:05:21;46.53;;;15.18;;
67776;SDS011;54576;52.020;5.536;2023-07-28T05:07:47;37.05;;;13.48;;
67776;SDS011;54576;52.020;5.536;2023-07-28T05:10:13;50.38;;;15.90;;
67776;SDS011;54576;52.020;5.536;2023-07-28T05:12:39;46.15;;;16.27;;
67776;SDS011;54576;52.020;5.536;2023-07-28T05:15:05;59.90;;;17.13;;
67776;SDS011;54576;52.020;5.536;2023-07-28T05:17:35;52.05;;;18.50;;
67776;SDS011;54576;52.020;5.536;2023-07-28T05:20:01;58.83;;;19.40;;
67776;SDS011;54576;52.020;5.536;2023-07-28T05:22:27;46.92;;;18.77;;
67776;SDS011;54576;52.020;5.536;2023-07-28T05:24:53;44.38;;;16.63;;
67776;SDS011;54576;52.020;5.536;2023-07-28T05:27:19;51.42;;;17.27;;
67776;SDS011;54576;52.020;5.536;2023-07-28T05:29:44;39.28;;;16.10;;
67776;SDS011;54576;52.020;5.536;2023-07-28T05:32:10;45.10;;;16.60;;
67776;SDS011;54576;52.020;5.536;2023-07-28T05:34:35;49.42;;;16.25;;
67776;SDS011;54576;52.020;5.536;2023-07-28T05:37:02;47.53;;;17.42;;
67776;SDS011;54576;52.020;5.536;2023-07-28T05:39:28;38.53;;;16.52;;
67776;SDS011;54576;52.020;5.536;2023-07-28T05:41:53;47.63;;;15.48;;
67776;SDS011;54576;52.020;5.536;2023-07-28T05:44:19;33.50;;;13.73;;
67776;SDS011;54576;52.020;5.536;2023-07-28T05:46:44;37.92;;;13.85;;
67776;SDS011;54576;52.020;5.536;2023-07-28T05:49:13;43.28;;;15.23;;
67776;SDS011;54576;52.020;5.536;2023-07-28T05:51:38;39.22;;;14.63;;
67776;SDS011;54576;52.020;5.536;2023-07-28T05:54:04;38.10;;;14.35;;
67776;SDS011;54576;52.020;5.536;2023-07-28T05:56:30;30.83;;;13.80;;
67776;SDS011;54576;52.020;5.536;2023-07-28T05:58:55;34.50;;;14.10;;
67776;SDS011;54576;52.020;5.536;2023-07-28T06:01:21;34.40;;;13.48;;
67776;SDS011;54576;52.020;5.536;2023-07-28T06:03:47;38.53;;;14.10;;
67776;SDS011;54576;52.020;5.536;2023-07-28T06:06:13;30.60;;;13.25;;
67776;SDS011;54576;52.020;5.536;2023-07-28T06:08:38;34.58;;;13.93;;
67776;SDS011;54576;52.020;5.536;2023-07-28T06:11:05;27.67;;;13.18;;
67776;SDS011;54576;52.020;5.536;2023-07-28T06:13:31;29.67;;;13.73;;
67776;SDS011;54576;52.020;5.536;2023-07-28T06:15:57;36.30;;;14.55;;
67776;SDS011;54576;52.020;5.536;2023-07-28T06:18:23;32.10;;;13.77;;
67776;SDS011;54576;52.020;5.536;2023-07-28T06:20:50;28.05;;;12.35;;
67776;SDS011;54576;52.020;5.536;2023-07-28T06:23:15;35.95;;;13.75;;
67776;SDS011;54576;52.020;5.536;2023-07-28T06:25:41;31.05;;;12.32;;
67776;SDS011;54576;52.020;5.536;2023-07-28T06:28:11;35.95;;;12.98;;
67776;SDS011;54576;52.020;5.536;2023-07-28T06:30:37;29.80;;;12.30;;
67776;SDS011;54576;52.020;5.536;2023-07-28T06:33:05;25.35;;;12.20;;
67776;SDS011;54576;52.020;5.536;2023-07-28T06:35:31;30.03;;;12.00;;
67776;SDS011;54576;52.020;5.536;2023-07-28T06:37:57;26.27;;;12.15;;
67776;SDS011;54576;52.020;5.536;2023-07-28T06:40:24;25.48;;;11.52;;
67776;SDS011;54576;52.020;5.536;2023-07-28T06:42:50;34.70;;;10.98;;
67776;SDS011;54576;52.020;5.536;2023-07-28T06:45:16;24.30;;;10.30;;
67776;SDS011;54576;52.020;5.536;2023-07-28T06:47:41;25.13;;;10.57;;
67776;SDS011;54576;52.020;5.536;2023-07-28T06:50:08;26.30;;;10.00;;
67776;SDS011;54576;52.020;5.536;2023-07-28T06:52:33;29.25;;;11.02;;
67776;SDS011;54576;52.020;5.536;2023-07-28T06:54:59;28.60;;;10.90;;
67776;SDS011;54576;52.020;5.536;2023-07-28T06:57:25;30.08;;;11.23;;
67776;SDS011;54576;52.020;5.536;2023-07-28T06:59:50;19.45;;;9.68;;
67776;SDS011;54576;52.020;5.536;2023-07-28T07:02:16;27.48;;;10.57;;
67776;SDS011;54576;52.020;5.536;2023-07-28T07:04:42;27.83;;;10.15;;
67776;SDS011;54576;52.020;5.536;2023-07-28T07:07:08;27.77;;;10.10;;
67776;SDS011;54576;52.020;5.536;2023-07-28T07:09:34;26.45;;;11.57;;
67776;SDS011;54576;52.020;5.536;2023-07-28T07:11:59;22.60;;;11.48;;
67776;SDS011;54576;52.020;5.536;2023-07-28T07:14:25;29.15;;;11.88;;
67776;SDS011;54576;52.020;5.536;2023-07-28T07:16:51;27.60;;;11.88;;
67776;SDS011;54576;52.020;5.536;2023-07-28T07:19:16;21.15;;;11.73;;
67776;SDS011;54576;52.020;5.536;2023-07-28T07:21:42;24.42;;;12.00;;
67776;SDS011;54576;52.020;5.536;2023-07-28T07:24:09;28.83;;;12.70;;
67776;SDS011;54576;52.020;5.536;2023-07-28T07:26:35;27.60;;;12.95;;
67776;SDS011;54576;52.020;5.536;2023-07-28T07:29:00;23.67;;;12.07;;
67776;SDS011;54576;52.020;5.536;2023-07-28T07:31:26;23.23;;;11.55;;
67776;SDS011;54576;52.020;5.536;2023-07-28T07:33:52;23.30;;;11.07;;
67776;SDS011;54576;52.020;5.536;2023-07-28T07:36:18;22.20;;;12.85;;
67776;SDS011;54576;52.020;5.536;2023-07-28T07:38:45;20.88;;;11.27;;
67776;SDS011;54576;52.020;5.536;2023-07-28T07:41:11;26.35;;;13.10;;
67776;SDS011;54576;52.020;5.536;2023-07-28T07:43:38;33.67;;;12.77;;
67776;SDS011;54576;52.020;5.536;2023-07-28T07:46:04;26.58;;;13.20;;
67776;SDS011;54576;52.020;5.536;2023-07-28T07:48:30;27.75;;;12.73;;
67776;SDS011;54576;52.020;5.536;2023-07-28T07:50:55;31.25;;;12.73;;
67776;SDS011;54576;52.020;5.536;2023-07-28T07:53:21;32.17;;;12.70;;
67776;SDS011;54576;52.020;5.536;2023-07-28T07:55:47;24.75;;;11.82;;
67776;SDS011;54576;52.020;5.536;2023-07-28T07:58:14;27.48;;;12.38;;
67776;SDS011;54576;52.020;5.536;2023-07-28T08:00:39;32.60;;;13.00;;
67776;SDS011;54576;52.020;5.536;2023-07-28T08:03:05;22.92;;;12.07;;
67776;SDS011;54576;52.020;5.536;2023-07-28T08:05:31;29.60;;;12.80;;
67776;SDS011;54576;52.020;5.536;2023-07-28T08:07:56;32.95;;;13.20;;
67776;SDS011;54576;52.020;5.536;2023-07-28T08:10:22;30.45;;;13.35;;
67776;SDS011;54576;52.020;5.536;2023-07-28T08:12:48;30.08;;;12.70;;
67776;SDS011;54576;52.020;5.536;2023-07-28T08:15:14;23.33;;;12.30;;
67776;SDS011;54576;52.020;5.536;2023-07-28T08:17:39;26.92;;;11.38;;
67776;SDS011;54576;52.020;5.536;2023-07-28T08:20:06;23.48;;;11.13;;
67776;SDS011;54576;52.020;5.536;2023-07-28T08:22:32;27.88;;;11.93;;
67776;SDS011;54576;52.020;5.536;2023-07-28T08:24:58;27.10;;;11.43;;
67776;SDS011;54576;52.020;5.536;2023-07-28T08:27:23;23.10;;;10.38;;
67776;SDS011;54576;52.020;5.536;2023-07-28T08:29:49;16.42;;;10.23;;
67776;SDS011;54576;52.020;5.536;2023-07-28T08:32:15;23.90;;;10.52;;
67776;SDS011;54576;52.020;5.536;2023-07-28T08:34:40;30.88;;;11.40;;
67776;SDS011;54576;52.020;5.536;2023-07-28T08:37:06;19.23;;;9.38;;
67776;SDS011;54576;52.020;5.536;2023-07-28T08:39:33;20.95;;;9.50;;
67776;SDS011;54576;52.020;5.536;2023-07-28T08:42:02;19.38;;;9.05;;
67776;SDS011;54576;52.020;5.536;2023-07-28T08:44:32;19.17;;;10.10;;
67776;SDS011;54576;52.020;5.536;2023-07-28T08:47:02;16.20;;;8.35;;
67776;SDS011;54576;52.020;5.536;2023-07-28T08:49:31;20.80;;;8.00;;
67776;SDS011;54576;52.020;5.536;2023-07-28T08:52:02;21.58;;;8.07;;
67776;SDS011;54576;52.020;5.536;2023-07-28T08:54:29;16.95;;;8.57;;
67776;SDS011;54576;52.020;5.536;2023-07-28T08:56:57;11.00;;;6.97;;
67776;SDS011;54576;52.020;5.536;2023-07-28T08:59:23;13.88;;;6.68;;
67776;SDS011;54576;52.020;5.536;2023-07-28T09:01:53;17.58;;;7.38;;
67776;SDS011;54576;52.020;5.536;2023-07-28T09:04:20;14.35;;;6.97;;
67776;SDS011;54576;52.020;5.536;2023-07-28T09:06:47;16.85;;;7.72;;
67776;SDS011;54576;52.020;5.536;2023-07-28T09:09:14;18.40;;;7.00;;
67776;SDS011;54576;52.020;5.536;2023-07-28T09:11:43;14.05;;;7.47;;
67776;SDS011;54576;52.020;5.536;2023-07-28T09:14:14;18.88;;;6.50;;
67776;SDS011;54576;52.020;5.536;2023-07-28T09:16:41;14.23;;;6.55;;
67776;SDS011;54576;52.020;5.536;2023-07-28T09:19:08;15.88;;;7.03;;
67776;SDS011;54576;52.020;5.536;2023-07-28T09:21:34;17.63;;;6.40;;
67776;SDS011;54576;52.020;5.536;2023-07-28T09:24:01;13.25;;;6.13;;
67776;SDS011;54576;52.020;5.536;2023-07-28T09:26:42;13.05;;;6.22;;
67776;SDS011;54576;52.020;5.536;2023-07-28T09:31:39;14.88;;;6.35;;
67776;SDS011;54576;52.020;5.536;2023-07-28T09:34:08;19.30;;;6.53;;
67776;SDS011;54576;52.020;5.536;2023-07-28T09:36:35;20.45;;;7.20;;
67776;SDS011;54576;52.020;5.536;2023-07-28T09:39:03;11.23;;;6.00;;
67776;SDS011;54576;52.020;5.536;2023-07-28T09:41:35;19.23;;;6.57;;
67776;SDS011;54576;52.020;5.536;2023-07-28T09:44:03;11.68;;;6.80;;
67776;SDS011;54576;52.020;5.536;2023-07-28T09:46:30;10.95;;;6.15;;
67776;SDS011;54576;52.020;5.536;2023-07-28T09:48:59;14.75;;;6.55;;
67776;SDS011;54576;52.020;5.536;2023-07-28T09:51:30;11.35;;;6.22;;
67776;SDS011;54576;52.020;5.536;2023-07-28T09:54:40;17.52;;;6.25;;
67776;SDS011;54576;52.020;5.536;2023-07-28T09:56:54;11.10;;;6.53;;
67776;SDS011;54576;52.020;5.536;2023-07-28T09:59:28;14.00;;;6.38;;
67776;SDS011;54576;52.020;5.536;2023-07-28T10:01:55;10.85;;;5.25;;
67776;SDS011;54576;52.020;5.536;2023-07-28T10:04:22;17.40;;;5.85;;
67776;SDS011;54576;52.020;5.536;2023-07-28T10:06:47;15.52;;;5.93;;
67776;SDS011;54576;52.020;5.536;2023-07-28T10:09:14;12.10;;;5.43;;
67776;SDS011;54576;52.020;5.536;2023-07-28T10:11:41;13.70;;;7.10;;
67776;SDS011;54576;52.020;5.536;2023-07-28T10:14:08;12.18;;;6.85;;
67776;SDS011;54576;52.020;5.536;2023-07-28T10:16:39;15.85;;;7.18;;
67776;SDS011;54576;52.020;5.536;2023-07-28T10:19:05;14.30;;;6.30;;
67776;SDS011;54576;52.020;5.536;2023-07-28T10:21:31;11.82;;;6.30;;
67776;SDS011;54576;52.020;5.536;2023-07-28T10:23:58;9.88;;;5.80;;
67776;SDS011;54576;52.020;5.536;2023-07-28T10:26:31;11.82;;;6.30;;
67776;SDS011;54576;52.020;5.536;2023-07-28T10:29:08;12.33;;;7.27;;
67776;SDS011;54576;52.020;5.536;2023-07-28T10:31:53;12.98;;;7.75;;
67776;SDS011;54576;52.020;5.536;2023-07-28T10:34:21;14.13;;;7.35;;
67776;SDS011;54576;52.020;5.536;2023-07-28T10:36:55;12.63;;;7.13;;
67776;SDS011;54576;52.020;5.536;2023-07-28T10:39:23;13.07;;;7.63;;
67776;SDS011;54576;52.020;5.536;2023-07-28T10:42:06;13.27;;;6.78;;
67776;SDS011;54576;52.020;5.536;2023-07-28T10:44:34;9.27;;;6.57;;
67776;SDS011;54576;52.020;5.536;2023-07-28T10:47:00;11.80;;;7.15;;
67776;SDS011;54576;52.020;5.536;2023-07-28T10:49:26;13.73;;;8.25;;
67776;SDS011;54576;52.020;5.536;2023-07-28T10:51:52;11.95;;;8.23;;
67776;SDS011;54576;52.020;5.536;2023-07-28T10:54:18;11.43;;;7.78;;
67776;SDS011;54576;52.020;5.536;2023-07-28T10:56:46;17.88;;;8.50;;
67776;SDS011;54576;52.020;5.536;2023-07-28T10:59:12;12.48;;;9.13;;
67776;SDS011;54576;52.020;5.536;2023-07-28T11:01:38;15.68;;;8.80;;
67776;SDS011;54576;52.020;5.536;2023-07-28T11:04:12;14.20;;;8.45;;
67776;SDS011;54576;52.020;5.536;2023-07-28T11:06:43;12.65;;;9.00;;
67776;SDS011;54576;52.020;5.536;2023-07-28T11:09:10;16.67;;;8.35;;
67776;SDS011;54576;52.020;5.536;2023-07-28T11:11:38;13.65;;;7.13;;
67776;SDS011;54576;52.020;5.536;2023-07-28T11:14:05;17.02;;;8.20;;
67776;SDS011;54576;52.020;5.536;2023-07-28T11:16:33;14.85;;;9.30;;
67776;SDS011;54576;52.020;5.536;2023-07-28T11:19:00;18.05;;;9.20;;
67776;SDS011;54576;52.020;5.536;2023-07-28T11:21:27;21.13;;;9.38;;
67776;SDS011;54576;52.020;5.536;2023-07-28T11:23:53;18.67;;;9.73;;
67776;SDS011;54576;52.020;5.536;2023-07-28T11:26:19;15.00;;;9.25;;
67776;SDS011;54576;52.020;5.536;2023-07-28T11:28:46;13.18;;;9.55;;
67776;SDS011;54576;52.020;5.536;2023-07-28T11:31:11;20.35;;;9.40;;
67776;SDS011;54576;52.020;5.536;2023-07-28T11:33:38;14.88;;;8.23;;
67776;SDS011;54576;52.020;5.536;2023-07-28T11:36:04;16.33;;;8.20;;
67776;SDS011;54576;52.020;5.536;2023-07-28T11:38:31;14.35;;;7.40;;
67776;SDS011;54576;52.020;5.536;2023-07-28T11:40:57;9.70;;;6.53;;
67776;SDS011;54576;52.020;5.536;2023-07-28T11:43:24;14.32;;;7.70;;
67776;SDS011;54576;52.020;5.536;2023-07-28T11:45:50;14.60;;;7.43;;
67776;SDS011;54576;52.020;5.536;2023-07-28T11:48:16;16.00;;;7.53;;
67776;SDS011;54576;52.020;5.536;2023-07-28T11:50:43;11.43;;;7.28;;
67776;SDS011;54576;52.020;5.536;2023-07-28T11:53:10;12.48;;;6.97;;
67776;SDS011;54576;52.020;5.536;2023-07-28T11:55:36;14.63;;;7.47;;
67776;SDS011;54576;52.020;5.536;2023-07-28T11:58:03;10.38;;;7.93;;
67776;SDS011;54576;52.020;5.536;2023-07-28T12:00:30;15.20;;;8.07;;
67776;SDS011;54576;52.020;5.536;2023-07-28T12:05:41;12.82;;;7.15;;
67776;SDS011;54576;52.020;5.536;2023-07-28T12:08:33;16.92;;;8.02;;
67776;SDS011;54576;52.020;5.536;2023-07-28T12:10:59;10.07;;;7.22;;
67776;SDS011;54576;52.020;5.536;2023-07-28T12:13:25;13.48;;;7.07;;
67776;SDS011;54576;52.020;5.536;2023-07-28T12:15:52;8.85;;;6.18;;
67776;SDS011;54576;52.020;5.536;2023-07-28T12:18:18;20.33;;;6.75;;
67776;SDS011;54576;52.020;5.536;2023-07-28T12:20:47;12.88;;;6.78;;
67776;SDS011;54576;52.020;5.536;2023-07-28T12:23:17;10.18;;;6.05;;
67776;SDS011;54576;52.020;5.536;2023-07-28T12:25:44;11.85;;;5.78;;
67776;SDS011;54576;52.020;5.536;2023-07-28T12:28:10;10.40;;;5.13;;
67776;SDS011;54576;52.020;5.536;2023-07-28T12:30:39;13.52;;;5.40;;
67776;SDS011;54576;52.020;5.536;2023-07-28T12:33:05;10.48;;;5.93;;
67776;SDS011;54576;52.020;5.536;2023-07-28T12:35:32;9.50;;;6.38;;
67776;SDS011;54576;52.020;5.536;2023-07-28T12:38:03;6.60;;;5.32;;
67776;SDS011;54576;52.020;5.536;2023-07-28T12:40:30;7.50;;;5.22;;
67776;SDS011;54576;52.020;5.536;2023-07-28T12:42:57;8.10;;;6.10;;
67776;SDS011;54576;52.020;5.536;2023-07-28T12:45:23;11.20;;;6.20;;
67776;SDS011;54576;52.020;5.536;2023-07-28T12:47:52;12.15;;;6.47;;
67776;SDS011;54576;52.020;5.536;2023-07-28T12:50:18;10.93;;;6.75;;
67776;SDS011;54576;52.020;5.536;2023-07-28T12:52:45;9.40;;;6.57;;
67776;SDS011;54576;52.020;5.536;2023-07-28T12:55:11;14.65;;;6.32;;
67776;SDS011;54576;52.020;5.536;2023-07-28T12:57:37;9.40;;;6.93;;
67776;SDS011;54576;52.020;5.536;2023-07-28T13:00:02;13.75;;;7.38;;
67776;SDS011;54576;52.020;5.536;2023-07-28T13:02:37;8.23;;;6.05;;
67776;SDS011;54576;52.020;5.536;2023-07-28T13:05:03;8.50;;;6.80;;
67776;SDS011;54576;52.020;5.536;2023-07-28T13:07:29;12.38;;;6.10;;
67776;SDS011;54576;52.020;5.536;2023-07-28T13:09:55;13.88;;;5.85;;
67776;SDS011;54576;52.020;5.536;2023-07-28T13:12:21;9.20;;;7.30;;
67776;SDS011;54576;52.020;5.536;2023-07-28T13:14:47;10.13;;;6.82;;
67776;SDS011;54576;52.020;5.536;2023-07-28T13:17:12;11.93;;;8.10;;
67776;SDS011;54576;52.020;5.536;2023-07-28T13:19:39;12.82;;;7.70;;
67776;SDS011;54576;52.020;5.536;2023-07-28T13:22:08;11.23;;;8.10;;
67776;SDS011;54576;52.020;5.536;2023-07-28T13:24:33;9.48;;;7.53;;
67776;SDS011;54576;52.020;5.536;2023-07-28T13:26:59;6.28;;;5.68;;
67776;SDS011;54576;52.020;5.536;2023-07-28T13:29:25;9.52;;;6.38;;
67776;SDS011;54576;52.020;5.536;2023-07-28T13:31:51;8.93;;;5.72;;
67776;SDS011;54576;52.020;5.536;2023-07-28T13:34:20;10.00;;;6.00;;
67776;SDS011;54576;52.020;5.536;2023-07-28T13:36:45;10.65;;;6.47;;
67776;SDS011;54576;52.020;5.536;2023-07-28T13:39:11;8.00;;;5.60;;
67776;SDS011;54576;52.020;5.536;2023-07-28T13:41:37;7.43;;;5.95;;
67776;SDS011;54576;52.020;5.536;2023-07-28T13:44:03;11.02;;;5.60;;
67776;SDS011;54576;52.020;5.536;2023-07-28T13:46:29;17.17;;;5.90;;
67776;SDS011;54576;52.020;5.536;2023-07-28T13:48:54;9.15;;;6.47;;
67776;SDS011;54576;52.020;5.536;2023-07-28T13:51:20;7.95;;;6.07;;
67776;SDS011;54576;52.020;5.536;2023-07-28T13:53:46;12.82;;;6.60;;
67776;SDS011;54576;52.020;5.536;2023-07-28T13:56:18;8.27;;;6.53;;
67776;SDS011;54576;52.020;5.536;2023-07-28T13:58:44;8.32;;;6.60;;
67776;SDS011;54576;52.020;5.536;2023-07-28T14:01:09;9.70;;;6.90;;
67776;SDS011;54576;52.020;5.536;2023-07-28T14:03:35;14.65;;;6.63;;
67776;SDS011;54576;52.020;5.536;2023-07-28T14:06:01;11.32;;;7.03;;
67776;SDS011;54576;52.020;5.536;2023-07-28T14:08:26;8.68;;;6.32;;
67776;SDS011;54576;52.020;5.536;2023-07-28T14:10:52;10.00;;;6.90;;
67776;SDS011;54576;52.020;5.536;2023-07-28T14:13:18;7.22;;;6.50;;
67776;SDS011;54576;52.020;5.536;2023-07-28T14:15:44;6.95;;;6.20;;
67776;SDS011;54576;52.020;5.536;2023-07-28T14:18:09;7.60;;;6.45;;
67776;SDS011;54576;52.020;5.536;2023-07-28T14:20:35;7.97;;;6.53;;
67776;SDS011;54576;52.020;5.536;2023-07-28T14:23:01;9.02;;;6.75;;
67776;SDS011;54576;52.020;5.536;2023-07-28T14:25:51;11.15;;;7.00;;
67776;SDS011;54576;52.020;5.536;2023-07-28T14:28:17;10.18;;;7.15;;
67776;SDS011;54576;52.020;5.536;2023-07-28T14:30:43;11.07;;;7.63;;
67776;SDS011;54576;52.020;5.536;2023-07-28T14:33:15;8.77;;;6.53;;
67776;SDS011;54576;52.020;5.536;2023-07-28T14:35:42;7.75;;;6.88;;
67776;SDS011;54576;52.020;5.536;2023-07-28T14:40:36;7.85;;;5.65;;
67776;SDS011;54576;52.020;5.536;2023-07-28T14:43:02;11.88;;;7.43;;
67776;SDS011;54576;52.020;5.536;2023-07-28T14:45:29;9.35;;;6.65;;